• Join FlightAware (Why Join?)
  • Login
  • US Flag 
11:18AM EDT


 

Airport Tracker/Info


-or-


 

Live Flight TrackerFlight Track Log ✈ SWA193 ✈ 22-Apr-2013 ✈ KFLL - KISP

Flight Track Log - Related Links

Times and Time Zones

All times are in EDT time to prevent confusion due to time zone crossing. See the SWA193 flight status page for this flight to view local times or setup timezone preferences in your user account.

Time Position Orientation Groundspeed Altitude Reporting Facility
EDT Latitude Longitude Course Direction KTS MPH feet Rate Location/Type
08:12AM 26.0769 -80.1392 57° Northeast 196 226 1,200  Level Miami Center
08:13AM 26.0967 -80.1050 57° Northeast 205 236 2,700 2,940 Climbing Miami Center
08:14AM 26.1414 -80.0575 44° Northeast 228 262 6,300 3,180 Climbing Miami Center
08:15AM 26.1861 -80.1119 312° West 244 281 9,600 2,160 Climbing Miami Center
08:16AM 26.2308 -80.1733 309° West 249 287 11,000 660 Climbing Miami Center
08:17AM 26.3069 -80.2264 328° Northwest 294 338 11,000 1,140 Level Miami Center
08:18AM 26.4017 -80.2778 334° Northwest 334 384 13,300 2,640 Climbing Miami Center
08:19AM 26.4886 -80.3106 341° North 361 415 16,300 2,820 Climbing Miami Center
08:20AM 26.5964 -80.3486 342° North 367 422 19,000 2,400 Climbing Miami Center
08:21AM 26.6917 -80.3817 343° North 379 436 21,100 2,100 Climbing Miami Center
08:22AM 26.8014 -80.4244 341° North 400 460 23,300 2,040 Climbing Miami Center
08:23AM 26.9153 -80.4628 343° North 405 466 25,200 1,920 Climbing Miami Center
08:24AM 27.0311 -80.5061 342° North 426 490 27,200 1,980 Climbing Miami Center
08:25AM 27.1489 -80.5472 343° North 432 497 29,200 1,800 Climbing Miami Center
08:26AM 27.2689 -80.5906 342° North 439 505 30,800 1,860 Climbing Miami Center
08:27AM 27.3869 -80.6342 342° North 439 505 33,000 2,100 Climbing Miami Center
08:28AM 27.5028 -80.6756 342° North 434 499 35,000 1,740 Climbing Miami Center
08:29AM 27.6144 -80.7144 343° North 428 493 36,500 1,320 Climbing Miami Center
08:30AM 27.7261 -80.7556 342° North 423 487 37,700 1,020 Climbing Miami Center
08:31AM 27.8397 -80.7972 342° North 418 481 38,600 600 Climbing Miami Center
08:32AM 27.9511 -80.8386 342° North 425 489 38,900 180 Climbing Miami Center
08:33AM 28.0650 -80.8778 343° North 425 489 39,000  Climbing Miami Center
08:34AM 28.1764 -80.9194 342° North 420 483 39,000  Level Miami Center
08:35AM 28.2922 -80.9614 342° North 420 483 39,000  Level Miami Center
08:36AM 28.4078 -81.0058 341° North 420 483 39,000  Level Miami Center
08:37AM 28.5272 -81.0528 341° North 432 497 39,000  Level Miami Center
08:38AM 28.5564 -81.0608 346° North 433 498 39,000  Level Jacksonville Center
08:39AM 28.6717 -81.1061 341° North 428 493 39,000  Level Jacksonville Center
08:40AM 28.7911 -81.1394 346° North 428 493 39,000  Level Jacksonville Center
08:41AM 28.9125 -81.1681 348° North 435 501 39,000  Level Jacksonville Center
08:42AM 29.0361 -81.1969 348° North 440 506 39,000  Level Jacksonville Center
08:43AM 29.1575 -81.2258 348° North 440 506 39,000  Level Jacksonville Center
08:44AM 29.2789 -81.2569 347° North 440 506 39,000  Level Jacksonville Center
08:45AM 29.4025 -81.2883 348° North 445 512 39,000  Level Jacksonville Center
08:46AM 29.5386 -81.3194 349° North 450 518 39,000  Level Jacksonville Center
08:47AM 29.6600 -81.3486 348° North 450 518 39,000  Level Jacksonville Center
08:48AM 29.7814 -81.3778 348° North 450 518 39,000 -60 Level Jacksonville Center
08:49AM 29.9031 -81.4047 349° North 450 518 38,900  Descending Jacksonville Center
08:50AM 30.0264 -81.4339 348° North 450 518 39,000  Climbing Jacksonville Center
08:51AM 30.1458 -81.4633 348° North 450 518 39,000  Level Jacksonville Center
08:52AM 30.2692 -81.4953 347° North 450 518 39,000  Level Jacksonville Center
08:53AM 30.3925 -81.5056 356° North 450 518 39,000  Level Jacksonville Center
08:54AM 30.5197 -81.4964 North 450 518 39,000  Level Jacksonville Center
08:55AM 30.6472 -81.4872 North 450 518 39,000  Level Jacksonville Center
08:56AM 30.7744 -81.4756 North 455 524 39,000  Level Jacksonville Center
08:57AM 30.9036 -81.4689 North 460 529 39,000 -60 Level Jacksonville Center
08:58AM 31.0331 -81.4550 North 460 529 38,900 -60 Descending Jacksonville Center
08:59AM 31.1603 -81.4431 North 455 524 38,900  Level Jacksonville Center
09:00AM 31.2894 -81.4289 North 462 532 39,000  Climbing Jacksonville Center
09:01AM 31.4039 -81.3956 14° North 466 536 39,000  Level Jacksonville Center
09:02AM 31.5456 -81.3592 12° North 471 542 39,000  Level Jacksonville Center
09:03AM 31.6767 -81.3253 12° North 471 542 39,000  Level Jacksonville Center
09:04AM 31.7911 -81.2942 13° North 471 542 39,000  Level Jacksonville Center
09:05AM 31.9242 -81.2600 12° North 477 549 39,000  Level Jacksonville Center
09:06AM 32.0533 -81.2258 13° North 477 549 39,000  Level Jacksonville Center
09:07AM 32.1714 -81.1572 26° Northeast 470 541 39,000  Level Jacksonville Center
09:08AM 32.2675 -81.0206 50° Northeast 468 539 39,000  Level Jacksonville Center
09:09AM 32.3431 -80.9008 53° Northeast 474 545 39,000  Level Jacksonville Center
09:10AM 32.4264 -80.7686 53° Northeast 491 565 39,000 -60 Level Jacksonville Center
09:11AM 32.5097 -80.6411 52° Northeast 496 571 38,900  Descending Jacksonville Center
09:12AM 32.5931 -80.5108 53° Northeast 496 571 39,000  Climbing Jacksonville Center
09:13AM 32.6761 -80.3803 53° Northeast 496 571 39,000  Level Jacksonville Center
09:14AM 32.7611 -80.2469 53° Northeast 496 571 39,000 -60 Level Jacksonville Center
09:15AM 32.8417 -80.1161 54° Northeast 496 571 38,900  Descending Jacksonville Center
09:16AM 32.9472 -79.9842 46° Northeast 491 565 39,000  Climbing Jacksonville Center
09:17AM 33.0553 -79.8789 39° Northeast 497 572 39,000  Level Jacksonville Center
09:18AM 33.1636 -79.7783 38° Northeast 497 572 39,000  Level Jacksonville Center
09:19AM 33.2736 -79.6728 39° Northeast 497 572 39,000  Level Jacksonville Center
09:20AM 33.3814 -79.5644 40° Northeast 497 572 39,000  Level Jacksonville Center
09:21AM 33.4914 -79.4583 39° Northeast 503 579 39,000  Level Jacksonville Center
09:22AM 33.6011 -79.3517 39° Northeast 503 579 39,000  Level Jacksonville Center
09:23AM 33.7086 -79.2425 40° Northeast 509 586 39,000  Level Jacksonville Center
09:24AM 33.8039 -79.1486 39° Northeast 503 579 39,000  Level Jacksonville Center
09:26AM 34.0658 -78.8908 39° Northeast 517 595 39,000  Level Washington Center
09:27AM 34.1772 -78.7800 39° Northeast 517 595 39,000 -60 Level Washington Center
09:28AM 34.2994 -78.6614 39° Northeast 517 595 38,900  Descending Washington Center
09:29AM 34.4086 -78.5472 41° Northeast 517 595 39,000  Climbing Washington Center
09:30AM 34.5219 -78.4353 39° Northeast 517 595 39,000  Level Washington Center
09:31AM 34.6331 -78.3206 40° Northeast 517 595 39,000  Level Washington Center
09:32AM 34.7442 -78.2081 40° Northeast 517 595 39,000  Level Washington Center
09:33AM 34.8444 -78.1000 41° Northeast 517 595 39,000  Level Washington Center
09:34AM 34.9575 -77.9869 39° Northeast 522 601 39,000  Level Washington Center
09:35AM 35.0703 -77.8683 41° Northeast 517 595 39,000  Level Washington Center
09:36AM 35.1747 -77.7569 41° Northeast 512 589 39,000  Level Washington Center
09:37AM 35.2914 -77.6406 39° Northeast 518 596 39,000  Level Washington Center
09:38AM 35.4081 -77.5236 39° Northeast 523 602 39,000  Level Washington Center
09:39AM 35.5286 -77.4219 34° Northeast 523 602 39,000  Level Washington Center
09:40AM 35.6472 -77.3147 36° Northeast 523 602 39,000  Level Washington Center
09:41AM 35.7694 -77.2125 34° Northeast 528 608 39,000  Level Washington Center
09:42AM 35.8964 -77.0919 38° Northeast 523 602 39,000  Level Washington Center
09:43AM 36.0164 -76.9889 35° Northeast 518 596 39,000  Level Washington Center
09:44AM 36.1386 -76.8831 35° Northeast 523 602 39,000  Level Washington Center
09:45AM 36.2608 -76.7744 36° Northeast 528 608 39,000  Level Washington Center
09:46AM 36.3808 -76.6678 36° Northeast 528 608 39,000  Level Washington Center
09:47AM 36.5006 -76.5558 37° Northeast 528 608 39,000  Level Washington Center
09:48AM 36.6203 -76.4486 36° Northeast 528 608 39,000  Level Washington Center
09:49AM 36.7400 -76.3383 36° Northeast 528 608 39,000  Level Washington Center
09:50AM 36.8617 -76.2281 36° Northeast 528 608 39,000  Level Washington Center
09:51AM 36.9975 -76.1483 25° Northeast 523 602 39,000  Level Washington Center
09:52AM 37.1336 -76.0764 23° Northeast 523 602 39,000  Level Washington Center
09:53AM 37.2653 -76.0067 23° Northeast 518 596 39,000  Level Washington Center
09:54AM 37.4011 -75.9344 23° Northeast 518 596 39,000  Level Washington Center
09:55AM 37.5347 -75.8617 23° Northeast 518 596 39,000  Level Washington Center
09:56AM 37.6642 -75.7650 31° Northeast 518 596 39,000  Level Washington Center
09:57AM 37.7936 -75.6706 30° Northeast 528 608 39,000  Level Washington Center
09:58AM 37.9208 -75.5733 31° Northeast 528 608 39,000  Level Washington Center
09:59AM 38.0458 -75.4731 32° Northeast 534 615 39,000 -360 Level Washington Center
10:00AM 38.1814 -75.3911 25° Northeast 534 615 38,300 -780 Descending Washington Center
10:01AM 38.2875 -75.3219 27° Northeast 534 615 37,500 -660 Descending Washington Center
10:02AM 38.4353 -75.2258 27° Northeast 534 615 37,000 -300 Descending Washington Center
10:03AM 38.5767 -75.1350 27° Northeast 540 621 37,000  Level Washington Center
10:04AM 38.7119 -75.0517 26° Northeast 540 621 37,000  Level Washington Center
10:05AM 38.8511 -74.9625 27° Northeast 540 621 37,000  Level Washington Center
10:06AM 38.9881 -74.8706 28° Northeast 546 628 37,000 -1,920 Level Washington Center
10:08AM 39.1950 -74.6525 39° Northeast 565 650 31,800 -3,240 Descending New York Center
10:09AM 39.2936 -74.4997 50° Northeast 559 643 28,100 -3,480 Descending New York Center
10:10AM 39.3903 -74.3489 50° Northeast 552 635 24,900 -3,000 Descending New York Center
10:11AM 39.4797 -74.2083 50° Northeast 528 608 22,100 -2,100 Descending New York Center
10:12AM 39.5628 -74.0775 51° Northeast 493 567 20,800 -1,140 Descending New York Center
10:13AM 39.6392 -73.9572 50° Northeast 458 527 19,800 -1,020 Descending New York Center
10:14AM 39.7194 -73.8339 50° Northeast 449 517 18,800 -1,020 Descending New York Center
10:15AM 39.7956 -73.7131 51° Northeast 442 509 17,800 -660 Descending New York Center
10:16AM 39.8694 -73.5917 52° Northeast 437 503 17,500 -660 Descending New York Center
10:17AM 39.9492 -73.4842 46° Northeast 424 488 16,500 -1,080 Descending New York Center
10:19AM 40.1617 -73.2383 41° Northeast 403 464 14,000 -1,440 Descending Boston Center
10:20AM 40.2392 -73.1414 44° Northeast 392 451 11,700 -2,400 Descending Boston Center
10:21AM 40.3169 -73.0525 41° Northeast 380 437 9,200 -1,140 Descending Boston Center
10:23AM 40.4667 -72.9167 35° Northeast 301 346 8,300 -720 Descending New York TRACON
10:24AM 40.5500 -72.8833 17° North 271 312 7,100 -1,380 Descending New York TRACON
10:25AM 40.6167 -72.8833 360° North 276 318 5,500 -1,800 Descending New York TRACON
10:26AM 40.6500 -72.9833 294° West 288 331 3,600 -1,620 Descending New York TRACON
10:27AM 40.6667 -73.0667 285° West 281 323 2,500 -780 Descending New York TRACON
10:28AM 40.7000 -73.1500 298° West 237 273 2,100 -540 Descending New York TRACON
10:29AM 40.7500 -73.1667 346° North 157 181 1,400 -660 Descending New York TRACON
10:30AM 40.7667 -73.1333 57° Northeast 124 143 800 -600 Descending New York TRACON
10:32AM 40.7833 -73.1000 57° Northeast  Level FlightAware Approximate
10:39AM 40.7952 -73.1002 57° Northeast  Level Estimated